Time;durP1;ratioP1;P1;durP2;ratioP2;P2;SDS_P1;SDS_P2;PMS_P1;PMS_P2;Temp;Humidity;BMP_temperature;BMP_pressure;BME280_temperature;BME280_humidity;BME280_pressure;Samples;Min_cycle;Max_cycle;Signal;HPM_P1;HPM_P2
2024/03/15 00:00:02;;;;;;;7.13;3.50;;;12.30;99.90;;;;;;5093784;28;20246;-66
2024/03/15 00:02:28;;;;;;;4.10;2.80;;;12.30;99.90;;;;;;5094138;28;20237;-67
2024/03/15 00:04:54;;;;;;;3.17;2.87;;;12.30;99.90;;;;;;5094606;28;20400;-67
2024/03/15 00:07:20;;;;;;;3.20;2.90;;;12.40;99.90;;;;;;5094589;28;20172;-67
2024/03/15 00:09:46;;;;;;;3.27;2.93;;;12.40;99.90;;;;;;5093868;28;20162;-66
2024/03/15 00:12:12;;;;;;;3.53;2.90;;;12.50;99.90;;;;;;5093998;28;20455;-69
2024/03/15 00:14:38;;;;;;;2.90;2.70;;;12.40;99.90;;;;;;5094298;28;20435;-67
2024/03/15 00:17:03;;;;;;;3.23;2.90;;;12.50;99.90;;;;;;5094174;28;20208;-68
2024/03/15 00:19:29;;;;;;;3.83;3.17;;;12.60;99.90;;;;;;5094008;28;20167;-67
2024/03/15 00:21:54;;;;;;;2.43;2.23;;;12.70;99.90;;;;;;5094518;28;20214;-68
2024/03/15 00:24:20;;;;;;;3.17;2.73;;;12.70;99.90;;;;;;5094732;28;20176;-68
2024/03/15 00:26:46;;;;;;;3.97;3.20;;;12.70;99.90;;;;;;5093429;28;20173;-67
2024/03/15 00:29:12;;;;;;;3.53;3.10;;;12.80;99.90;;;;;;5093777;28;20661;-68
2024/03/15 00:31:41;;;;;;;2.80;2.60;;;12.80;99.90;;;;;;5094119;28;20215;-68
2024/03/15 00:34:07;;;;;;;3.57;3.27;;;12.70;99.90;;;;;;5093764;28;20406;-68
2024/03/15 00:36:33;;;;;;;3.33;2.73;;;12.80;99.90;;;;;;5094029;28;20452;-68
2024/03/15 00:38:59;;;;;;;4.33;2.90;;;12.60;99.90;;;;;;5094155;28;20750;-68
2024/03/15 00:41:25;;;;;;;5.37;2.90;;;12.70;99.90;;;;;;5094360;28;20449;-67
2024/03/15 00:43:53;;;;;;;2.70;2.50;;;12.80;99.90;;;;;;5094260;28;20426;-68
2024/03/15 00:46:22;;;;;;;3.40;3.10;;;12.90;99.90;;;;;;5093887;28;20217;-68
2024/03/15 00:48:49;;;;;;;3.83;3.17;;;12.90;99.90;;;;;;5094031;28;20407;-68
2024/03/15 00:51:14;;;;;;;3.70;2.40;;;13.00;99.90;;;;;;5093972;28;20527;-67
2024/03/15 00:53:40;;;;;;;3.40;2.93;;;13.00;99.90;;;;;;5093427;28;20512;-68
2024/03/15 00:56:07;;;;;;;3.50;3.20;;;12.90;99.90;;;;;;5093516;28;20192;-67
2024/03/15 00:58:33;;;;;;;2.77;2.57;;;12.90;99.90;;;;;;5093377;28;20925;-67
2024/03/15 01:01:01;;;;;;;2.93;2.63;;;12.80;99.90;;;;;;5093427;28;20403;-67
2024/03/15 01:03:27;;;;;;;5.43;2.80;;;12.80;99.90;;;;;;5093420;28;20475;-67
2024/03/15 01:05:55;;;;;;;3.80;3.50;;;12.60;99.90;;;;;;5093616;28;20411;-67
2024/03/15 01:08:21;;;;;;;2.87;2.67;;;12.70;99.90;;;;;;5093507;28;20436;-68
2024/03/15 01:10:48;;;;;;;3.27;2.83;;;12.70;99.90;;;;;;5093106;28;20411;-68
2024/03/15 01:13:13;;;;;;;3.27;2.97;;;12.70;99.90;;;;;;5092941;28;20810;-67
2024/03/15 01:15:39;;;;;;;4.37;3.40;;;12.80;99.90;;;;;;5093112;28;20540;-67
2024/03/15 01:18:05;;;;;;;2.80;2.60;;;12.90;99.90;;;;;;5093134;28;20635;-68
2024/03/15 01:20:32;;;;;;;4.90;3.20;;;13.00;99.90;;;;;;5093277;28;20187;-65
2024/03/15 01:22:58;;;;;;;3.67;3.10;;;12.90;99.90;;;;;;5093318;28;20269;-67
2024/03/15 01:25:23;;;;;;;3.27;2.90;;;13.00;99.90;;;;;;5093418;28;20460;-67
2024/03/15 01:27:49;;;;;;;3.83;2.80;;;12.90;99.90;;;;;;5093104;28;20641;-67
2024/03/15 01:30:14;;;;;;;3.50;2.90;;;12.80;99.90;;;;;;5092964;28;20258;-67
2024/03/15 01:32:40;;;;;;;3.00;2.70;;;12.70;99.90;;;;;;5098221;28;20663;-67
2024/03/15 01:35:07;;;;;;;3.60;3.10;;;12.70;99.90;;;;;;5099932;28;20328;-68
2024/03/15 01:37:32;;;;;;;5.23;2.80;;;12.60;99.90;;;;;;5099958;28;20184;-67
2024/03/15 01:39:59;;;;;;;3.50;3.10;;;12.60;99.90;;;;;;5099854;28;20407;-67
2024/03/15 01:42:24;;;;;;;3.70;3.30;;;12.50;99.90;;;;;;5099901;28;20190;-66
2024/03/15 01:44:54;;;;;;;4.73;2.60;;;12.50;99.90;;;;;;5099705;28;20396;-67
2024/03/15 01:47:21;;;;;;;5.10;3.17;;;12.50;99.90;;;;;;5100009;28;20178;-68
2024/03/15 01:49:50;;;;;;;4.00;3.00;;;12.50;99.90;;;;;;5100044;28;20487;-68
2024/03/15 01:52:16;;;;;;;4.10;2.77;;;12.50;99.90;;;;;;5099969;28;20414;-67
2024/03/15 01:54:44;;;;;;;6.93;2.67;;;12.40;99.90;;;;;;5099934;28;20406;-68
2024/03/15 01:57:10;;;;;;;3.93;2.80;;;12.40;99.90;;;;;;5100124;28;20232;-68
2024/03/15 01:59:35;;;;;;;5.40;3.20;;;12.40;99.90;;;;;;5099489;28;20807;-68
2024/03/15 02:02:05;;;;;;;4.20;2.77;;;12.40;99.90;;;;;;5123707;22;20211;-70
2024/03/15 02:04:31;;;;;;;2.90;2.60;;;12.50;99.90;;;;;;5097941;28;20195;-69
2024/03/15 02:06:57;;;;;;;3.37;2.80;;;12.40;99.90;;;;;;5098806;28;20400;-70
2024/03/15 02:09:24;;;;;;;2.90;2.60;;;12.40;99.90;;;;;;5099010;28;20391;-71
2024/03/15 02:11:51;;;;;;;3.17;2.73;;;12.50;99.90;;;;;;5098635;28;20430;-70
2024/03/15 02:14:16;;;;;;;4.20;3.80;;;12.60;99.90;;;;;;5080387;28;20837;-71
2024/03/15 02:16:42;;;;;;;3.50;3.20;;;12.60;99.90;;;;;;5077881;28;20446;-70
2024/03/15 02:19:09;;;;;;;3.87;3.20;;;12.50;99.90;;;;;;5078375;28;20187;-70
2024/03/15 02:21:35;;;;;;;3.73;2.97;;;12.40;99.90;;;;;;5078138;28;20613;-70
2024/03/15 02:24:01;;;;;;;6.23;2.67;;;12.40;99.90;;;;;;5078311;28;20416;-71
2024/03/15 02:26:27;;;;;;;3.40;3.10;;;12.50;99.90;;;;;;5078455;28;20192;-71
2024/03/15 02:28:53;;;;;;;2.90;2.70;;;12.50;99.90;;;;;;5078489;28;20430;-71
2024/03/15 02:31:21;;;;;;;3.30;3.00;;;12.30;99.90;;;;;;5078498;28;20173;-70
2024/03/15 02:33:47;;;;;;;4.77;2.80;;;12.30;99.90;;;;;;5078600;28;20442;-71
2024/03/15 02:36:15;;;;;;;5.33;2.83;;;12.30;99.90;;;;;;5078482;28;20445;-71
2024/03/15 02:38:41;;;;;;;3.83;3.00;;;12.40;99.90;;;;;;5078222;28;20411;-70
2024/03/15 02:41:09;;;;;;;4.77;2.80;;;12.50;99.90;;;;;;5078085;28;20410;-70
2024/03/15 02:43:35;;;;;;;4.10;2.93;;;12.50;99.90;;;;;;5074908;28;20419;-71
2024/03/15 02:46:01;;;;;;;3.40;3.00;;;12.40;99.90;;;;;;5075130;28;20907;-69
2024/03/15 02:48:26;;;;;;;3.47;2.80;;;12.30;99.90;;;;;;5074852;28;20556;-70
2024/03/15 02:50:52;;;;;;;5.70;2.90;;;12.30;99.90;;;;;;5075045;28;20169;-71
2024/03/15 02:53:19;;;;;;;3.37;2.63;;;12.30;99.90;;;;;;5074623;28;20279;-70
2024/03/15 02:55:44;;;;;;;2.77;2.50;;;12.30;99.90;;;;;;5074768;28;20197;-70
2024/03/15 02:58:11;;;;;;;3.23;2.93;;;12.30;99.90;;;;;;5074672;28;20406;-70
2024/03/15 03:00:37;;;;;;;4.33;2.90;;;12.20;99.90;;;;;;5074922;28;20174;-71
2024/03/15 03:03:03;;;;;;;3.87;2.43;;;12.10;99.90;;;;;;5074430;28;20446;-69
2024/03/15 03:05:30;;;;;;;3.07;2.60;;;12.10;99.90;;;;;;5074756;28;20649;-71
2024/03/15 03:07:56;;;;;;;5.60;3.23;;;12.00;99.90;;;;;;5074958;28;20410;-71
2024/03/15 03:10:22;;;;;;;3.60;3.17;;;11.80;99.90;;;;;;5074694;28;20466;-70
2024/03/15 03:12:47;;;;;;;4.83;2.83;;;11.70;99.90;;;;;;5074498;28;20245;-71
2024/03/15 03:15:14;;;;;;;2.80;2.60;;;11.80;99.90;;;;;;5074741;28;20456;-71
2024/03/15 03:17:40;;;;;;;2.83;2.53;;;11.80;99.90;;;;;;5074352;28;20203;-70
2024/03/15 03:20:11;;;;;;;4.03;2.70;;;11.80;99.90;;;;;;5074478;28;20405;-71
2024/03/15 03:22:37;;;;;;;5.17;3.40;;;11.80;99.90;;;;;;5070966;28;20258;-71
2024/03/15 03:25:03;;;;;;;3.50;2.70;;;11.80;99.90;;;;;;5074469;28;20805;-71
2024/03/15 03:27:29;;;;;;;3.70;3.33;;;11.70;99.90;;;;;;5074246;28;20401;-70
2024/03/15 03:29:54;;;;;;;2.87;2.40;;;11.60;99.90;;;;;;5073938;28;20743;-70
2024/03/15 03:32:20;;;;;;;3.70;3.03;;;11.50;99.90;;;;;;5073927;28;20605;-70
2024/03/15 03:34:45;;;;;;;2.57;2.37;;;11.50;99.90;;;;;;5074014;28;20607;-70
2024/03/15 03:37:12;;;;;;;2.53;2.33;;;11.50;99.90;;;;;;5074036;28;20303;-70
2024/03/15 03:39:38;;;;;;;2.60;2.40;;;11.40;99.90;;;;;;5073925;28;20158;-71
2024/03/15 03:42:04;;;;;;;2.30;2.10;;;11.50;99.90;;;;;;5073943;28;20737;-70
2024/03/15 03:44:32;;;;;;;3.17;2.37;;;11.50;99.90;;;;;;5073771;28;20161;-71
2024/03/15 03:46:57;;;;;;;3.10;2.43;;;11.60;99.90;;;;;;5073770;28;20440;-70
2024/03/15 03:49:23;;;;;;;3.43;3.00;;;11.60;99.90;;;;;;5074023;28;20440;-70
2024/03/15 03:51:49;;;;;;;2.50;2.10;;;11.70;99.90;;;;;;5073679;28;20169;-70
2024/03/15 03:54:15;;;;;;;4.67;2.63;;;11.70;99.90;;;;;;5073245;28;20634;-70
2024/03/15 03:56:41;;;;;;;3.67;2.53;;;11.80;99.90;;;;;;5073815;28;20201;-70
2024/03/15 03:59:08;;;;;;;3.23;2.73;;;11.80;99.90;;;;;;5073350;28;20404;-70
2024/03/15 04:01:34;;;;;;;2.70;2.23;;;11.80;99.90;;;;;;5072129;28;20774;-70
2024/03/15 04:03:59;;;;;;;3.40;2.53;;;11.90;99.90;;;;;;5073263;28;20449;-70
2024/03/15 04:06:27;;;;;;;2.60;2.40;;;11.90;99.90;;;;;;5073906;28;20175;-70
2024/03/15 04:08:53;;;;;;;7.03;2.77;;;12.00;99.90;;;;;;5073653;28;20551;-71
2024/03/15 04:11:18;;;;;;;4.03;2.70;;;11.90;99.90;;;;;;5073040;28;20444;-70
2024/03/15 04:13:44;;;;;;;2.60;2.40;;;11.90;99.90;;;;;;5073307;28;20811;-70
2024/03/15 04:16:10;;;;;;;2.50;2.07;;;11.90;99.90;;;;;;5073472;28;20226;-70
2024/03/15 04:18:36;;;;;;;2.90;2.60;;;12.00;99.90;;;;;;5073284;28;20163;-71
2024/03/15 04:21:03;;;;;;;3.27;2.20;;;12.10;99.90;;;;;;5073514;28;20175;-71
2024/03/15 04:23:30;;;;;;;2.60;2.40;;;12.20;99.90;;;;;;5055996;28;20527;-71
2024/03/15 04:25:56;;;;;;;3.43;2.30;;;12.10;99.90;;;;;;5072808;28;20442;-70
2024/03/15 04:28:21;;;;;;;2.67;2.47;;;12.10;99.90;;;;;;5072938;28;20951;-70
2024/03/15 04:30:47;;;;;;;2.30;2.10;;;12.10;99.90;;;;;;5073089;28;20520;-70
2024/03/15 04:33:13;;;;;;;2.43;2.20;;;12.20;99.90;;;;;;5072899;28;20680;-70
2024/03/15 04:35:40;;;;;;;3.00;2.00;;;12.20;99.90;;;;;;5073249;28;20256;-72
2024/03/15 04:38:05;;;;;;;3.53;2.20;;;12.30;99.90;;;;;;5073043;28;20161;-71
2024/03/15 04:40:31;;;;;;;2.20;2.00;;;12.30;99.90;;;;;;5072748;28;20413;-70
2024/03/15 04:42:57;;;;;;;7.53;2.50;;;12.40;99.90;;;;;;5072640;28;20231;-71
2024/03/15 04:45:23;;;;;;;2.60;2.30;;;12.30;99.90;;;;;;5072859;28;20596;-70
2024/03/15 04:47:49;;;;;;;4.00;2.30;;;12.40;99.90;;;;;;5072602;28;20168;-70
2024/03/15 04:50:15;;;;;;;2.57;2.20;;;12.40;99.90;;;;;;5072531;28;20421;-72
2024/03/15 04:52:42;;;;;;;4.70;2.00;;;12.50;99.90;;;;;;5072609;28;20429;-71
2024/03/15 04:55:11;;;;;;;2.87;2.57;;;12.50;99.90;;;;;;5072769;28;20400;-70
2024/03/15 04:57:38;;;;;;;2.20;1.80;;;12.60;99.90;;;;;;5072483;28;20526;-71
2024/03/15 05:00:17;;;;;;;3.40;1.93;;;12.50;99.90;;;;;;5072606;28;20946;-71
2024/03/15 05:02:43;;;;;;;4.30;2.07;;;12.50;99.90;;;;;;5072365;28;20446;-70
2024/03/15 05:05:09;;;;;;;2.10;1.87;;;12.40;99.90;;;;;;5072284;28;20414;-70
2024/03/15 05:07:35;;;;;;;2.57;2.37;;;12.50;99.90;;;;;;5072047;28;20399;-70
2024/03/15 05:10:00;;;;;;;2.37;2.17;;;12.40;99.90;;;;;;5072260;28;20600;-70
2024/03/15 05:12:26;;;;;;;3.10;2.20;;;12.20;99.90;;;;;;5072082;28;20219;-70
2024/03/15 05:14:51;;;;;;;3.40;2.03;;;12.30;99.90;;;;;;5072254;28;20535;-71
2024/03/15 05:17:17;;;;;;;2.97;2.20;;;12.30;99.90;;;;;;5072765;28;20505;-69
2024/03/15 05:19:42;;;;;;;2.27;1.93;;;12.30;99.90;;;;;;5072327;28;20164;-70
2024/03/15 05:22:08;;;;;;;2.20;1.70;;;12.20;99.90;;;;;;5072054;28;20158;-70
2024/03/15 05:24:34;;;;;;;2.87;2.50;;;12.20;99.90;;;;;;5072190;28;20175;-69
2024/03/15 05:27:00;;;;;;;3.27;1.97;;;12.10;99.90;;;;;;5072085;28;20413;-70
2024/03/15 05:29:25;;;;;;;2.47;2.27;;;12.20;99.90;;;;;;5072147;28;20170;-69
2024/03/15 05:31:51;;;;;;;2.43;1.90;;;12.20;99.90;;;;;;5072044;28;20177;-70
2024/03/15 05:34:17;;;;;;;2.27;2.07;;;12.20;99.90;;;;;;5071909;28;20200;-70
2024/03/15 05:36:43;;;;;;;1.70;1.43;;;12.20;99.90;;;;;;5072289;28;20254;-70
2024/03/15 05:39:11;;;;;;;4.73;2.20;;;12.10;99.90;;;;;;5072152;28;20422;-70
2024/03/15 05:41:41;;;;;;;3.20;2.47;;;12.10;99.90;;;;;;5072060;28;20170;-70
2024/03/15 05:44:09;;;;;;;3.97;2.30;;;12.10;99.90;;;;;;5071798;28;20950;-70
2024/03/15 05:46:35;;;;;;;5.47;2.60;;;11.90;99.90;;;;;;5072188;28;20400;-69
2024/03/15 05:49:00;;;;;;;3.43;2.80;;;11.70;99.90;;;;;;5072252;28;20768;-70
2024/03/15 05:51:27;;;;;;;2.90;2.37;;;11.80;99.90;;;;;;5054120;28;20174;-70
2024/03/15 05:53:52;;;;;;;7.73;5.93;;;11.80;99.90;;;;;;5072048;28;20194;-69
2024/03/15 05:56:19;;;;;;;29.33;20.23;;;11.70;99.90;;;;;;5072101;28;20444;-70
2024/03/15 05:58:44;;;;;;;3.97;3.57;;;11.70;99.90;;;;;;5072277;28;20166;-69
2024/03/15 06:01:12;;;;;;;4.17;2.97;;;11.70;99.90;;;;;;5072123;28;20393;-70
2024/03/15 06:03:38;;;;;;;7.80;6.93;;;11.70;99.90;;;;;;5071580;28;20283;-70
2024/03/15 06:06:08;;;;;;;8.53;6.53;;;11.50;99.90;;;;;;5071602;28;20448;-69
2024/03/15 06:08:34;;;;;;;6.10;4.60;;;11.60;99.90;;;;;;5072054;28;20158;-70
2024/03/15 06:11:00;;;;;;;3.53;3.23;;;11.80;99.90;;;;;;5071781;28;20408;-70
2024/03/15 06:13:26;;;;;;;3.93;3.47;;;11.90;99.90;;;;;;5071914;28;20421;-68
2024/03/15 06:15:52;;;;;;;5.40;3.93;;;11.90;99.90;;;;;;5072243;28;20190;-69
2024/03/15 06:18:18;;;;;;;4.60;4.20;;;12.00;99.90;;;;;;5074541;28;20170;-70
2024/03/15 06:20:44;;;;;;;4.70;3.33;;;12.00;99.90;;;;;;5074996;28;20454;-69
2024/03/15 06:23:10;;;;;;;4.23;3.03;;;12.00;99.90;;;;;;5075615;28;20557;-69
2024/03/15 06:25:36;;;;;;;2.60;2.40;;;11.90;99.90;;;;;;5075968;28;20188;-69
2024/03/15 06:28:06;;;;;;;3.00;2.50;;;11.80;99.90;;;;;;5075775;28;20427;-70
2024/03/15 06:30:42;;;;;;;3.27;2.10;;;11.90;99.90;;;;;;5075732;28;20412;-69
2024/03/15 06:33:09;;;;;;;4.03;2.87;;;11.80;99.90;;;;;;5075081;28;20415;-70
2024/03/15 06:35:34;;;;;;;4.60;2.63;;;11.70;99.90;;;;;;5075297;28;20439;-70
2024/03/15 06:41:29;;;;;;;3.77;2.63;;;11.50;99.90;;;;;;5075687;28;20165;-69
2024/03/15 06:43:41;;;;;;;2.60;2.40;;;11.60;99.90;;;;;;5069038;28;20464;-69
2024/03/15 06:46:20;;;;;;;6.30;2.67;;;11.50;99.90;;;;;;5075327;28;20809;-69
2024/03/15 06:49:12;;;;;;;2.67;2.27;;;11.50;99.90;;;;;;5075197;28;20394;-69
2024/03/15 06:54:22;;;;;;;6.13;2.33;;;11.60;99.90;;;;;;5075741;28;20398;-69
2024/03/15 06:56:48;;;;;;;3.53;3.00;;;11.70;99.90;;;;;;5075008;28;20451;-69
2024/03/15 06:59:14;;;;;;;3.90;2.80;;;11.70;99.90;;;;;;5075370;28;20409;-69
2024/03/15 07:01:39;;;;;;;3.93;3.00;;;11.70;99.90;;;;;;5074921;28;20173;-68
2024/03/15 07:04:08;;;;;;;5.77;2.77;;;11.80;99.90;;;;;;5074312;28;20219;-70
2024/03/15 07:06:33;;;;;;;4.27;2.50;;;11.80;99.90;;;;;;5075326;28;20166;-69
2024/03/15 07:09:00;;;;;;;2.93;2.53;;;12.00;99.90;;;;;;5074516;28;20406;-70
2024/03/15 07:11:29;;;;;;;3.90;2.77;;;11.90;99.90;;;;;;5075002;28;20252;-70
2024/03/15 07:13:57;;;;;;;7.70;2.73;;;12.20;99.90;;;;;;5063685;28;20913;-69
2024/03/15 07:16:24;;;;;;;3.17;2.50;;;12.20;99.90;;;;;;5075209;28;20527;-70
2024/03/15 07:18:50;;;;;;;2.90;2.60;;;12.40;99.90;;;;;;5074567;28;20400;-69
2024/03/15 07:21:16;;;;;;;3.57;2.40;;;12.70;99.90;;;;;;5074356;28;20831;-69
2024/03/15 07:23:42;;;;;;;2.47;2.23;;;12.80;99.90;;;;;;5074068;28;20191;-69
2024/03/15 07:26:10;;;;;;;2.57;2.37;;;13.00;99.90;;;;;;5073930;28;20728;-70
2024/03/15 07:28:38;;;;;;;1.97;1.77;;;13.20;99.90;;;;;;5074165;28;20249;-70
2024/03/15 07:31:04;;;;;;;3.93;2.30;;;13.30;99.90;;;;;;5073677;28;20408;-71
2024/03/15 07:33:30;;;;;;;3.47;2.63;;;13.40;99.90;;;;;;5074417;28;20429;-69
2024/03/15 07:36:04;;;;;;;2.60;2.13;;;13.60;99.90;;;;;;5056351;28;20451;-69
2024/03/15 07:38:30;;;;;;;2.17;1.97;;;13.70;99.90;;;;;;5074738;28;20142;-70
2024/03/15 07:40:55;;;;;;;3.30;2.70;;;13.80;99.90;;;;;;5073985;28;20932;-70
2024/03/15 07:43:21;;;;;;;2.67;2.20;;;13.80;99.90;;;;;;5074014;28;20414;-70
2024/03/15 07:45:48;;;;;;;2.97;2.13;;;13.80;99.90;;;;;;5073823;28;20192;-69
2024/03/15 07:48:14;;;;;;;3.53;2.23;;;13.90;99.90;;;;;;5073808;28;20174;-70
2024/03/15 07:50:41;;;;;;;3.03;2.47;;;13.90;99.90;;;;;;5073916;28;20405;-69
2024/03/15 07:53:08;;;;;;;3.60;2.50;;;14.00;99.90;;;;;;5073704;28;20436;-70
2024/03/15 07:55:35;;;;;;;3.73;2.30;;;14.20;99.90;;;;;;5073260;28;20431;-70
2024/03/15 07:58:03;;;;;;;2.53;2.30;;;14.10;99.90;;;;;;5073919;28;20405;-70
2024/03/15 08:00:32;;;;;;;5.03;2.50;;;14.20;99.90;;;;;;5073528;28;20401;-70
2024/03/15 08:02:57;;;;;;;5.47;2.13;;;14.40;99.90;;;;;;5099410;22;20491;-69
2024/03/15 08:05:26;;;;;;;3.37;2.50;;;14.60;99.90;;;;;;5075313;28;20925;-68
2024/03/15 08:07:51;;;;;;;5.50;2.17;;;14.80;99.90;;;;;;5075360;28;20261;-70
2024/03/15 08:10:18;;;;;;;4.20;2.60;;;15.00;99.90;;;;;;5076164;28;20422;-68
2024/03/15 08:12:43;;;;;;;4.40;2.60;;;15.10;99.90;;;;;;5073995;28;20276;-68
2024/03/15 08:15:09;;;;;;;2.93;2.47;;;15.10;99.90;;;;;;5074132;28;20514;-68
2024/03/15 08:17:35;;;;;;;3.80;2.40;;;14.90;99.90;;;;;;5074060;28;20196;-68
2024/03/15 08:20:04;;;;;;;3.97;2.70;;;15.00;99.90;;;;;;5074616;28;20282;-68
2024/03/15 08:22:29;;;;;;;2.63;2.30;;;15.10;99.90;;;;;;5073771;28;20858;-68
2024/03/15 08:24:55;;;;;;;3.67;2.10;;;15.10;99.90;;;;;;5073665;28;20446;-68
2024/03/15 08:27:20;;;;;;;2.60;2.17;;;15.00;99.90;;;;;;5073104;28;20177;-68
2024/03/15 08:29:46;;;;;;;4.20;2.50;;;15.10;99.90;;;;;;5073961;28;20173;-68
2024/03/15 08:32:11;;;;;;;3.23;2.10;;;15.20;99.90;;;;;;5073930;28;20367;-68
2024/03/15 08:34:37;;;;;;;3.03;2.40;;;15.20;99.90;;;;;;5073761;28;20225;-68
2024/03/15 08:37:03;;;;;;;5.53;2.97;;;15.10;99.90;;;;;;5073602;28;20679;-68
2024/03/15 08:39:29;;;;;;;3.47;2.33;;;15.20;99.90;;;;;;5073633;28;20173;-68
2024/03/15 08:41:55;;;;;;;2.40;1.87;;;15.30;99.90;;;;;;5072384;28;20173;-68
2024/03/15 08:44:20;;;;;;;2.63;1.80;;;15.30;99.90;;;;;;5073092;28;20544;-68
2024/03/15 08:46:47;;;;;;;2.80;1.50;;;15.40;99.90;;;;;;5073628;28;20227;-68
2024/03/15 08:49:15;;;;;;;3.53;2.20;;;15.60;99.90;;;;;;5073565;28;20173;-68
2024/03/15 08:51:46;;;;;;;3.10;2.30;;;15.70;99.90;;;;;;5073226;28;20420;-68
2024/03/15 08:54:11;;;;;;;3.30;1.90;;;15.70;99.90;;;;;;5073415;28;20432;-68
2024/03/15 08:56:39;;;;;;;2.67;2.03;;;15.70;99.90;;;;;;5073189;28;20846;-68
2024/03/15 08:59:05;;;;;;;3.10;2.03;;;15.70;99.90;;;;;;5073019;28;20169;-68
2024/03/15 09:01:34;;;;;;;3.10;1.60;;;15.80;99.90;;;;;;5073138;28;20405;-66
2024/03/15 09:04:01;;;;;;;3.53;2.13;;;15.90;99.90;;;;;;5072724;28;20206;-68
2024/03/15 09:06:27;;;;;;;2.23;2.03;;;16.10;99.90;;;;;;5073131;28;20922;-68
2024/03/15 09:08:56;;;;;;;2.30;1.80;;;16.00;99.90;;;;;;5073331;28;20412;-68
2024/03/15 09:11:22;;;;;;;2.83;2.00;;;16.20;99.90;;;;;;5073202;28;20415;-68
2024/03/15 09:13:49;;;;;;;2.40;1.60;;;16.20;99.90;;;;;;5072917;28;20420;-68
2024/03/15 09:16:14;;;;;;;2.87;1.90;;;16.20;99.90;;;;;;5072692;28;20193;-68
2024/03/15 09:18:41;;;;;;;2.70;2.07;;;16.30;99.90;;;;;;5072838;28;20415;-69
2024/03/15 09:21:07;;;;;;;1.90;1.77;;;16.50;99.90;;;;;;5073101;28;20518;-68
2024/03/15 09:23:33;;;;;;;2.77;1.93;;;16.50;99.90;;;;;;5072937;28;20424;-68
2024/03/15 09:25:59;;;;;;;3.37;2.00;;;16.60;99.90;;;;;;5072779;28;20400;-68
2024/03/15 09:28:30;;;;;;;4.70;2.20;;;16.70;99.90;;;;;;5072595;28;20174;-68
2024/03/15 09:30:57;;;;;;;3.50;2.23;;;16.90;99.90;;;;;;5054885;28;20424;-68
2024/03/15 09:33:27;;;;;;;4.27;1.87;;;17.00;99.90;;;;;;5072532;28;20942;-68
2024/03/15 09:35:53;;;;;;;3.50;1.67;;;16.90;99.90;;;;;;5073164;28;20440;-68
2024/03/15 09:38:19;;;;;;;3.43;1.63;;;17.00;99.90;;;;;;5072951;28;20409;-68
2024/03/15 09:40:44;;;;;;;4.03;1.70;;;17.20;99.90;;;;;;5072765;28;20767;-67
2024/03/15 09:43:15;;;;;;;2.50;1.30;;;17.20;99.90;;;;;;5072362;28;20194;-68
2024/03/15 09:45:41;;;;;;;4.23;2.00;;;17.20;99.90;;;;;;5072793;28;20211;-68
2024/03/15 09:48:11;;;;;;;2.60;1.93;;;17.20;99.90;;;;;;5072588;28;20450;-68
2024/03/15 09:50:39;;;;;;;3.30;1.93;;;17.50;99.90;;;;;;5072562;28;20408;-68
2024/03/15 09:53:07;;;;;;;2.40;1.83;;;17.60;99.90;;;;;;5056836;28;20443;-69
2024/03/15 09:55:33;;;;;;;2.63;1.70;;;17.80;99.90;;;;;;5076535;28;20451;-68
2024/03/15 09:57:59;;;;;;;2.80;2.00;;;17.90;99.90;;;;;;5076828;28;20838;-68
2024/03/15 10:00:24;;;;;;;2.20;1.70;;;18.20;99.90;;;;;;5076583;28;20541;-68
2024/03/15 10:02:52;;;;;;;4.03;1.83;;;18.60;99.90;;;;;;5076301;28;20284;-68
2024/03/15 10:05:20;;;;;;;9.83;1.90;;;18.90;99.90;;;;;;5075994;28;20556;-68
2024/03/15 10:07:47;;;;;;;3.27;1.80;;;19.10;99.90;;;;;;5076291;28;20411;-68
2024/03/15 10:10:14;;;;;;;7.47;1.90;;;18.80;99.90;;;;;;5076256;28;20438;-68
2024/03/15 10:12:41;;;;;;;3.77;2.20;;;18.60;99.90;;;;;;5076160;28;21018;-68
2024/03/15 10:15:12;;;;;;;2.80;1.63;;;18.40;99.90;;;;;;5076172;28;20405;-68
2024/03/15 10:17:39;;;;;;;4.40;1.90;;;18.20;99.90;;;;;;5076056;28;20908;-68
2024/03/15 10:20:11;;;;;;;3.33;1.77;;;18.00;99.90;;;;;;5076509;28;20400;-69
2024/03/15 10:22:38;;;;;;;2.40;2.20;;;17.90;99.90;;;;;;5076380;28;20475;-68
2024/03/15 10:25:10;;;;;;;2.27;2.07;;;17.80;99.90;;;;;;5076316;28;20433;-69
2024/03/15 10:27:38;;;;;;;2.83;1.87;;;17.70;99.90;;;;;;5076252;28;20834;-68
2024/03/15 10:30:14;;;;;;;1.43;1.20;;;17.60;99.90;;;;;;5075696;28;20408;-69
2024/03/15 10:32:40;;;;;;;2.03;1.40;;;17.50;99.90;;;;;;5076007;28;20424;-68
2024/03/15 10:35:15;;;;;;;1.57;1.40;;;17.40;99.90;;;;;;5075754;28;20488;-69
2024/03/15 10:37:44;;;;;;;3.60;1.47;;;17.40;99.90;;;;;;5076077;28;20385;-68
2024/03/15 10:40:15;;;;;;;2.27;1.13;;;17.30;99.90;;;;;;5076046;28;20412;-68
2024/03/15 10:42:46;;;;;;;2.20;1.30;;;17.30;99.90;;;;;;5075876;28;20910;-68
2024/03/15 10:45:13;;;;;;;1.67;1.57;;;17.40;99.90;;;;;;5075577;28;20764;-69
2024/03/15 10:47:40;;;;;;;2.20;1.30;;;17.60;99.90;;;;;;5075647;28;20454;-68
2024/03/15 10:50:11;;;;;;;2.20;1.30;;;17.80;99.90;;;;;;5076943;28;20404;-69
2024/03/15 10:52:41;;;;;;;1.50;1.27;;;17.70;99.90;;;;;;5075275;28;20501;-68
2024/03/15 10:55:28;;;;;;;1.40;1.10;;;17.50;99.90;;;;;;5075270;28;20415;-69
2024/03/15 10:57:56;;;;;;;3.30;1.37;;;17.50;99.90;;;;;;5075727;28;20408;-68
2024/03/15 11:00:26;;;;;;;3.00;1.30;;;17.40;99.90;;;;;;5075315;28;20704;-68
2024/03/15 11:02:55;;;;;;;2.20;2.00;;;17.40;99.90;;;;;;5075242;28;20470;-68
2024/03/15 11:05:29;;;;;;;2.00;1.80;;;17.40;99.90;;;;;;5074044;28;20422;-68
2024/03/15 11:08:13;;;;;;;3.57;1.70;;;17.30;99.90;;;;;;5075134;28;20483;-68
2024/03/15 11:10:40;;;;;;;1.87;1.40;;;17.40;99.90;;;;;;5075272;28;20458;-68
2024/03/15 11:13:07;;;;;;;2.17;1.63;;;17.30;99.90;;;;;;5074960;28;20467;-70
2024/03/15 11:15:37;;;;;;;3.73;2.00;;;17.20;99.90;;;;;;5075042;28;20455;-68
2024/03/15 11:18:07;;;;;;;1.97;1.77;;;17.30;99.90;;;;;;5075016;28;20494;-68
2024/03/15 11:21:00;;;;;;;2.07;1.50;;;17.20;99.90;;;;;;5075028;28;20405;-68
2024/03/15 11:23:27;;;;;;;3.10;2.00;;;17.10;99.90;;;;;;5075020;28;20428;-68
2024/03/15 11:25:53;;;;;;;3.47;1.77;;;17.30;99.90;;;;;;5075038;28;20412;-68
2024/03/15 11:28:19;;;;;;;2.83;1.80;;;17.70;99.90;;;;;;5075703;28;20461;-68
2024/03/15 11:30:45;;;;;;;5.50;1.73;;;18.10;99.90;;;;;;5075780;28;20409;-68
2024/03/15 11:33:11;;;;;;;2.40;1.97;;;18.30;99.90;;;;;;5075597;28;20799;-68
2024/03/15 11:35:40;;;;;;;3.77;1.57;;;18.10;99.90;;;;;;5074880;28;20644;-68
2024/03/15 11:38:12;;;;;;;2.33;1.60;;;18.30;99.90;;;;;;5074644;28;20419;-69
2024/03/15 11:40:37;;;;;;;2.10;1.40;;;18.20;99.90;;;;;;5075948;28;20483;-69
2024/03/15 11:43:03;;;;;;;3.60;1.73;;;18.60;99.90;;;;;;5077121;28;20942;-68
2024/03/15 11:45:29;;;;;;;2.23;1.50;;;18.80;99.90;;;;;;5074553;28;20243;-68
2024/03/15 11:47:55;;;;;;;6.13;2.13;;;18.90;99.90;;;;;;5074802;28;20185;-69
2024/03/15 11:50:21;;;;;;;2.77;2.10;;;18.80;99.90;;;;;;5074512;28;20401;-69
2024/03/15 11:53:00;;;;;;;3.03;1.70;;;18.80;99.90;;;;;;5074656;28;20268;-68
2024/03/15 11:55:26;;;;;;;2.33;1.80;;;18.70;99.90;;;;;;5074442;28;20504;-68
2024/03/15 11:57:52;;;;;;;3.53;1.93;;;18.50;99.90;;;;;;5074382;28;20914;-69
2024/03/15 12:00:21;;;;;;;1.97;1.77;;;18.50;99.90;;;;;;5074316;28;20408;-68
2024/03/15 12:02:57;;;;;;;1.80;1.53;;;18.40;99.90;;;;;;5074025;28;20209;-68
2024/03/15 12:05:22;;;;;;;2.27;1.50;;;18.60;99.90;;;;;;5074299;28;20414;-66
2024/03/15 12:07:51;;;;;;;6.20;2.20;;;18.10;99.90;;;;;;5074314;28;20408;-66
2024/03/15 12:10:17;;;;;;;2.00;1.80;;;18.30;99.90;;;;;;5073929;28;20178;-69
2024/03/15 12:12:47;;;;;;;3.30;2.00;;;18.40;99.90;;;;;;5074134;28;20444;-68
2024/03/15 12:15:29;;;;;;;1.90;1.60;;;18.70;99.90;;;;;;5068887;28;20412;-71
2024/03/15 12:17:58;;;;;;;2.30;1.83;;;19.20;99.90;;;;;;5074182;28;20397;-73
2024/03/15 12:20:25;;;;;;;2.30;1.63;;;20.20;99.90;;;;;;5074072;28;20415;-71
2024/03/15 12:22:51;;;;;;;2.40;1.87;;;20.10;99.60;;;;;;5073770;28;20424;-71
2024/03/15 12:25:17;;;;;;;3.30;1.70;;;20.30;99.80;;;;;;5055849;28;20416;-72
2024/03/15 12:27:43;;;;;;;1.97;1.30;;;20.30;98.50;;;;;;5074219;28;20966;-73
2024/03/15 12:30:11;;;;;;;1.40;1.23;;;19.90;98.90;;;;;;5073981;28;20178;-72
2024/03/15 12:32:40;;;;;;;3.40;1.50;;;19.70;98.50;;;;;;5073889;28;20408;-73
2024/03/15 12:35:08;;;;;;;3.77;1.47;;;19.60;98.70;;;;;;5073546;28;20412;-71
2024/03/15 12:37:34;;;;;;;3.83;1.57;;;19.50;99.20;;;;;;5073781;28;20466;-71
2024/03/15 12:40:00;;;;;;;2.30;1.40;;;19.60;99.00;;;;;;5073611;28;20780;-74
2024/03/15 12:42:26;;;;;;;2.30;1.47;;;20.00;99.60;;;;;;5074067;28;20454;-72
2024/03/15 12:44:52;;;;;;;1.17;1.07;;;20.20;98.10;;;;;;5073275;28;20174;-73
2024/03/15 12:47:18;;;;;;;3.93;1.57;;;20.50;97.80;;;;;;5073311;28;20400;-73
2024/03/15 12:49:44;;;;;;;1.77;1.37;;;20.50;97.10;;;;;;5073415;28;20395;-73
2024/03/15 12:52:12;;;;;;;1.43;1.30;;;20.30;97.40;;;;;;5073252;28;20392;-73